createdAt,value
2023-02-11T00:00:20.254Z,73.40
2023-02-11T00:00:52.049Z,75.03
2023-02-11T00:01:32.809Z,76.43
2023-02-11T00:02:05.375Z,75.83
2023-02-11T00:02:37.210Z,75.30
2023-02-11T00:03:09.561Z,76.50
2023-02-11T00:03:41.374Z,72.20
2023-02-11T00:04:13.519Z,70.83
2023-02-11T00:04:45.190Z,72.40
2023-02-11T00:05:16.919Z,72.77
2023-02-11T00:06:03.276Z,72.83
2023-02-11T00:06:36.427Z,73.83
2023-02-11T00:07:08.100Z,71.47
2023-02-11T00:07:39.793Z,71.70
2023-02-11T00:08:16.966Z,73.47
2023-02-11T00:08:48.735Z,72.10
2023-02-11T00:09:20.423Z,70.40
2023-02-11T00:09:52.128Z,72.60
2023-02-11T00:10:23.770Z,71.13
2023-02-11T00:10:57.353Z,71.47
2023-02-11T00:11:30.570Z,71.93
2023-02-11T00:12:02.338Z,72.73
2023-02-11T00:12:35.501Z,71.90
2023-02-11T00:13:07.160Z,71.73
2023-02-11T00:13:38.823Z,71.80
2023-02-11T00:14:11.775Z,71.13
2023-02-11T00:14:43.515Z,71.60
2023-02-11T00:15:15.266Z,73.13
2023-02-11T00:15:47.081Z,73.07
2023-02-11T00:16:21.251Z,74.43
2023-02-11T00:16:53.008Z,72.50
2023-02-11T00:17:24.876Z,71.67
2023-02-11T00:17:56.541Z,71.47
2023-02-11T00:18:28.831Z,70.10
2023-02-11T00:19:02.336Z,71.73
2023-02-11T00:19:34.031Z,70.60
2023-02-11T00:20:08.225Z,71.43
2023-02-11T00:20:40.301Z,72.97
2023-02-11T00:21:14.689Z,74.03
2023-02-11T00:21:46.376Z,74.77
2023-02-11T00:22:18.820Z,73.07
2023-02-11T00:22:50.471Z,71.30
2023-02-11T00:23:22.135Z,70.70
2023-02-11T00:23:57.290Z,72.70
2023-02-11T00:24:30.172Z,73.83
2023-02-11T00:25:01.911Z,72.00
2023-02-11T00:25:33.658Z,73.27
2023-02-11T00:26:15.622Z,73.73
2023-02-11T00:26:47.294Z,75.50
2023-02-11T00:27:19.138Z,75.93
2023-02-11T00:27:50.802Z,77.47
2023-02-11T00:28:22.540Z,73.07
2023-02-11T00:28:54.322Z,74.20
2023-02-11T00:29:25.979Z,73.17
2023-02-11T00:29:57.752Z,70.57
2023-02-11T00:30:29.462Z,72.20
2023-02-11T00:31:02.570Z,73.33
2023-02-11T00:31:34.958Z,74.90
2023-02-11T00:32:08.879Z,73.20
2023-02-11T00:32:42.635Z,71.07
2023-02-11T00:33:14.300Z,74.23
2023-02-11T00:33:46.975Z,75.33
2023-02-11T00:34:18.701Z,74.47
2023-02-11T00:34:52.569Z,77.53
2023-02-11T00:35:24.235Z,76.57
2023-02-11T00:35:55.898Z,75.17
2023-02-11T00:36:29.119Z,76.83
2023-02-11T00:37:00.933Z,74.40
2023-02-11T00:37:36.409Z,74.43
2023-02-11T00:38:08.064Z,73.73
2023-02-11T00:38:39.765Z,74.97
2023-02-11T00:39:11.451Z,73.40
2023-02-11T00:39:43.136Z,74.40
2023-02-11T00:40:16.115Z,72.27
2023-02-11T00:40:48.500Z,73.80
2023-02-11T00:41:20.914Z,73.17
2023-02-11T00:41:52.575Z,71.40
2023-02-11T00:42:24.312Z,72.13
2023-02-11T00:42:55.949Z,71.23
2023-02-11T00:43:27.665Z,71.13
2023-02-11T00:44:00.234Z,72.53
2023-02-11T00:44:31.921Z,70.47
2023-02-11T00:45:04.650Z,70.53
2023-02-11T00:45:36.363Z,72.37
2023-02-11T00:46:09.091Z,71.67
2023-02-11T00:46:40.858Z,71.83
2023-02-11T00:47:12.748Z,72.20
2023-02-11T00:47:44.430Z,74.43
2023-02-11T00:48:16.193Z,75.00
2023-02-11T00:48:48.118Z,76.30
2023-02-11T00:49:19.765Z,75.77
2023-02-11T00:49:51.453Z,73.83
2023-02-11T00:50:23.706Z,72.60
2023-02-11T00:50:55.415Z,71.23
2023-02-11T00:51:28.916Z,73.03
2023-02-11T00:52:00.835Z,71.60
2023-02-11T00:52:32.893Z,73.30
2023-02-11T00:53:04.717Z,72.53
2023-02-11T00:53:36.896Z,71.27
2023-02-11T00:54:08.734Z,70.80
2023-02-11T00:54:40.647Z,69.43
2023-02-11T00:55:12.382Z,70.63
2023-02-11T00:55:44.045Z,71.63
2023-02-11T00:56:15.785Z,72.93
2023-02-11T00:56:47.479Z,70.37
2023-02-11T00:57:19.246Z,68.80
2023-02-11T00:57:51.014Z,69.70
2023-02-11T00:58:22.955Z,69.37
2023-02-11T00:58:54.605Z,70.07
2023-02-11T00:59:26.261Z,71.63
2023-02-11T00:59:57.897Z,69.20
2023-02-11T01:00:29.754Z,72.03
2023-02-11T01:01:01.430Z,72.23
2023-02-11T01:01:33.239Z,72.97
2023-02-11T01:02:04.920Z,72.57
2023-02-11T01:02:36.580Z,73.63
2023-02-11T01:03:08.240Z,73.50
2023-02-11T01:03:40.689Z,71.00
2023-02-11T01:04:12.423Z,70.73
2023-02-11T01:04:44.060Z,70.47
2023-02-11T01:05:15.928Z,70.17
2023-02-11T01:05:47.772Z,69.67
2023-02-11T01:06:19.578Z,68.70
2023-02-11T01:06:51.278Z,73.83
2023-02-11T01:07:23.245Z,74.17
2023-02-11T01:07:54.936Z,73.67
2023-02-11T01:08:27.088Z,72.60
2023-02-11T01:08:58.780Z,72.70
2023-02-11T01:09:30.747Z,72.17
2023-02-11T01:10:02.461Z,71.43
2023-02-11T01:10:34.203Z,70.53
2023-02-11T01:11:11.987Z,70.13
2023-02-11T01:11:44.057Z,70.63
2023-02-11T01:12:15.721Z,71.60
2023-02-11T01:12:47.884Z,72.17
2023-02-11T01:13:19.529Z,68.37
2023-02-11T01:13:51.420Z,69.77
2023-02-11T01:14:23.419Z,69.63
2023-02-11T01:14:55.126Z,68.57
2023-02-11T01:15:26.886Z,69.93
2023-02-11T01:15:59.164Z,69.27
2023-02-11T01:16:30.910Z,71.43
2023-02-11T01:17:05.448Z,69.60
2023-02-11T01:17:38.241Z,70.80
2023-02-11T01:18:09.912Z,69.57
2023-02-11T01:18:44.261Z,69.40
2023-02-11T01:19:15.959Z,70.20
2023-02-11T01:19:47.703Z,67.93
2023-02-11T01:20:26.566Z,69.00
2023-02-11T01:20:58.227Z,69.87
2023-02-11T01:21:29.915Z,69.33
2023-02-11T01:22:01.611Z,67.73
2023-02-11T01:22:34.396Z,68.13
2023-02-11T01:23:06.044Z,68.53
2023-02-11T01:23:37.749Z,69.90
2023-02-11T01:24:09.412Z,69.57
2023-02-11T01:24:41.078Z,68.10
2023-02-11T01:25:12.766Z,70.63
2023-02-11T01:25:44.680Z,69.00
2023-02-11T01:26:16.577Z,69.73
2023-02-11T01:26:48.210Z,68.93
2023-02-11T01:27:19.984Z,65.83
2023-02-11T01:27:51.622Z,67.63
2023-02-11T01:28:26.270Z,68.87
2023-02-11T01:29:00.126Z,69.73
2023-02-11T01:29:31.771Z,68.73
2023-02-11T01:30:07.062Z,69.03
2023-02-11T01:30:39.539Z,69.63
2023-02-11T01:31:11.375Z,70.73
2023-02-11T01:31:43.052Z,68.07
2023-02-11T01:32:14.839Z,67.07
2023-02-11T01:32:46.541Z,67.17
2023-02-11T01:33:18.257Z,68.10
2023-02-11T01:33:49.952Z,67.07
2023-02-11T01:34:21.597Z,67.27
2023-02-11T01:34:53.270Z,67.47
2023-02-11T01:35:24.924Z,66.47
2023-02-11T01:36:00.805Z,66.63
2023-02-11T01:36:32.668Z,68.30
2023-02-11T01:37:04.351Z,67.80
2023-02-11T01:37:36.890Z,65.80
2023-02-11T01:38:14.837Z,67.13
2023-02-11T01:38:46.484Z,70.03
2023-02-11T01:39:18.268Z,68.17
2023-02-11T01:39:50.054Z,65.90
2023-02-11T01:40:21.770Z,66.13
2023-02-11T01:41:08.753Z,67.03
2023-02-11T01:41:40.496Z,64.93
2023-02-11T01:42:17.076Z,67.77
2023-02-11T01:42:50.957Z,68.33
2023-02-11T01:43:24.943Z,67.70
2023-02-11T01:43:56.618Z,67.03
2023-02-11T01:44:34.762Z,64.83
2023-02-11T01:45:43.801Z,66.67
2023-02-11T01:46:36.316Z,65.90
2023-02-11T01:47:08.079Z,67.87
2023-02-11T01:47:39.767Z,69.30
2023-02-11T01:48:15.477Z,67.67
2023-02-11T01:48:53.316Z,68.20
2023-02-11T01:49:30.277Z,70.43
2023-02-11T01:50:02.904Z,67.90
2023-02-11T01:50:35.026Z,66.53
2023-02-11T01:51:13.354Z,68.37
2023-02-11T01:51:51.765Z,69.30
2023-02-11T01:52:30.294Z,69.70
2023-02-11T01:53:22.348Z,71.13
2023-02-11T01:54:14.163Z,74.70
2023-02-11T01:55:12.077Z,73.00
2023-02-11T01:56:02.195Z,72.87
2023-02-11T01:56:58.000Z,67.23
2023-02-11T01:57:33.855Z,69.43
2023-02-11T01:58:06.319Z,68.43
2023-02-11T01:58:43.503Z,67.97
2023-02-11T01:59:26.911Z,68.47
2023-02-11T02:00:07.916Z,66.87
2023-02-11T02:00:41.695Z,67.37
2023-02-11T02:01:19.236Z,69.17
2023-02-11T02:01:57.496Z,68.70
2023-02-11T02:02:43.940Z,66.37
2023-02-11T02:03:22.800Z,63.67
2023-02-11T02:03:59.680Z,64.50
2023-02-11T02:04:38.900Z,67.83
2023-02-11T02:05:53.059Z,66.90
2023-02-11T02:06:35.429Z,68.00
2023-02-11T02:07:14.656Z,71.63
2023-02-11T02:08:13.018Z,71.67
2023-02-11T02:08:52.194Z,72.83
2023-02-11T02:09:29.028Z,70.40
2023-02-11T02:10:07.681Z,71.00
2023-02-11T02:10:43.952Z,72.20
2023-02-11T02:11:15.914Z,71.13
2023-02-11T02:11:47.824Z,72.17
2023-02-11T02:12:19.564Z,71.87
2023-02-11T02:12:51.475Z,72.10
2023-02-11T02:13:24.281Z,71.23
2023-02-11T02:13:55.954Z,69.70
2023-02-11T02:14:28.956Z,72.17
2023-02-11T02:15:33.417Z,71.83
2023-02-11T02:16:09.832Z,72.13
2023-02-11T02:16:41.987Z,74.77
2023-02-11T02:17:33.779Z,75.37
2023-02-11T02:18:10.991Z,77.53
2023-02-11T02:19:03.892Z,76.50
2023-02-11T02:19:50.413Z,77.97
2023-02-11T02:20:40.201Z,79.27
2023-02-11T02:21:33.133Z,80.20
2023-02-11T02:22:42.049Z,85.53
2023-02-11T02:23:41.648Z,84.53
2023-02-11T02:24:44.463Z,85.50
2023-02-11T02:25:42.747Z,83.27
2023-02-11T02:26:45.290Z,85.83
2023-02-11T02:27:44.707Z,85.00
2023-02-11T02:28:42.351Z,83.97
2023-02-11T02:29:22.632Z,84.50
2023-02-11T02:29:54.248Z,85.77
2023-02-11T02:30:48.303Z,86.13
2023-02-11T02:31:50.462Z,86.93
2023-02-11T02:32:31.229Z,89.80
2023-02-11T02:33:23.127Z,87.93
2023-02-11T02:34:02.479Z,87.47
2023-02-11T02:34:49.502Z,87.47
2023-02-11T02:35:59.734Z,88.03
2023-02-11T02:36:47.585Z,90.87
2023-02-11T02:37:28.502Z,91.67
2023-02-11T02:38:08.676Z,90.33
2023-02-11T02:38:40.329Z,91.00
2023-02-11T02:39:20.210Z,91.87
2023-02-11T02:39:51.924Z,96.10
2023-02-11T02:40:38.355Z,95.13
2023-02-11T02:41:15.670Z,93.80
2023-02-11T02:41:50.966Z,91.67
2023-02-11T02:42:23.812Z,92.90
2023-02-11T02:42:57.058Z,92.37
2023-02-11T02:43:30.355Z,93.87
2023-02-11T02:44:02.424Z,95.83
2023-02-11T02:44:34.366Z,94.47
2023-02-11T02:45:09.029Z,94.40
2023-02-11T02:45:40.763Z,94.73
2023-02-11T02:46:16.441Z,91.77
2023-02-11T02:46:48.201Z,93.57
2023-02-11T02:47:19.953Z,96.17
2023-02-11T02:47:51.609Z,91.50
2023-02-11T02:48:35.777Z,92.80
2023-02-11T02:49:13.572Z,93.43
2023-02-11T02:49:45.320Z,93.27
2023-02-11T02:50:25.315Z,93.53
2023-02-11T02:51:06.680Z,92.67
2023-02-11T02:52:00.033Z,95.23
2023-02-11T02:52:34.564Z,91.90
2023-02-11T02:53:08.853Z,95.13
2023-02-11T02:53:52.260Z,97.13
2023-02-11T02:54:37.281Z,94.70
2023-02-11T02:55:31.140Z,91.97
2023-02-11T02:56:16.988Z,94.07
2023-02-11T02:56:57.765Z,93.60
2023-02-11T02:58:01.543Z,96.37
2023-02-11T02:58:56.378Z,96.00
2023-02-11T03:00:09.498Z,93.57
2023-02-11T03:00:54.989Z,94.67
2023-02-11T03:01:38.678Z,92.37
2023-02-11T03:02:19.264Z,97.47
2023-02-11T03:03:06.938Z,98.03
2023-02-11T03:04:06.325Z,93.27
2023-02-11T03:04:51.936Z,94.90
2023-02-11T03:05:34.185Z,93.90
2023-02-11T03:06:26.158Z,95.03
2023-02-11T03:07:20.957Z,96.43
2023-02-11T03:08:09.691Z,93.20
2023-02-11T03:08:53.032Z,93.60
2023-02-11T03:09:46.945Z,93.80
2023-02-11T03:10:40.703Z,95.77
2023-02-11T03:11:17.284Z,93.33
2023-02-11T03:11:49.530Z,91.20
2023-02-11T03:12:24.508Z,92.73
2023-02-11T03:12:58.072Z,93.50
2023-02-11T03:13:33.999Z,90.50
2023-02-11T03:14:10.376Z,93.10
2023-02-11T03:14:42.187Z,93.73
2023-02-11T03:15:16.686Z,93.67
2023-02-11T03:15:52.458Z,94.93
2023-02-11T03:16:28.238Z,94.73
2023-02-11T03:17:04.411Z,94.37
2023-02-11T03:17:41.421Z,92.83
2023-02-11T03:18:18.694Z,91.60
2023-02-11T03:19:01.530Z,93.17
2023-02-11T03:19:41.193Z,92.00
2023-02-11T03:20:17.589Z,92.50
2023-02-11T03:20:53.416Z,90.43
2023-02-11T03:21:26.633Z,92.27
2023-02-11T03:21:58.527Z,91.30
2023-02-11T03:22:42.745Z,90.27
2023-02-11T03:23:23.802Z,90.53
2023-02-11T03:23:59.584Z,90.37
2023-02-11T03:24:35.145Z,90.07
2023-02-11T03:25:07.747Z,86.57
2023-02-11T03:25:49.166Z,89.30
2023-02-11T03:26:33.758Z,91.83
2023-02-11T03:27:29.211Z,93.83
2023-02-11T03:28:08.787Z,101.63
2023-02-11T03:28:50.266Z,101.00
2023-02-11T03:29:35.400Z,100.37
2023-02-11T03:30:18.710Z,100.23
2023-02-11T03:31:02.332Z,99.13
2023-02-11T03:31:45.996Z,97.13
2023-02-11T03:32:28.228Z,97.90
2023-02-11T03:33:14.152Z,99.03
2023-02-11T03:34:05.947Z,91.30
2023-02-11T03:34:45.979Z,93.07
2023-02-11T03:35:24.555Z,94.50
2023-02-11T03:36:15.214Z,93.57
2023-02-11T03:36:54.624Z,97.40
2023-02-11T03:37:33.472Z,95.50
2023-02-11T03:38:33.362Z,98.60
2023-02-11T03:39:07.360Z,100.40
2023-02-11T03:39:55.005Z,108.80
2023-02-11T03:40:32.595Z,117.10
2023-02-11T03:41:08.412Z,119.73
2023-02-11T03:41:43.035Z,124.47
2023-02-11T03:42:16.353Z,123.70
2023-02-11T03:43:01.187Z,118.77
2023-02-11T03:43:48.768Z,113.53
2023-02-11T03:44:25.322Z,116.93
2023-02-11T03:45:05.335Z,108.70
2023-02-11T03:45:39.535Z,101.67
2023-02-11T03:46:15.261Z,100.77
2023-02-11T03:46:51.556Z,103.17
2023-02-11T03:47:27.590Z,104.93
2023-02-11T03:48:11.796Z,103.97
2023-02-11T03:48:50.107Z,108.40
2023-02-11T03:49:27.741Z,108.90
2023-02-11T03:50:03.077Z,108.03
2023-02-11T03:50:37.425Z,106.40
2023-02-11T03:51:12.725Z,105.70
2023-02-11T03:51:45.152Z,107.83
2023-02-11T03:52:20.388Z,107.43
2023-02-11T03:52:54.154Z,107.53
2023-02-11T03:53:25.830Z,106.33
2023-02-11T03:54:02.132Z,106.60
2023-02-11T03:54:35.805Z,104.10
2023-02-11T03:55:13.426Z,106.87
2023-02-11T03:55:49.189Z,105.10
2023-02-11T03:56:26.899Z,107.97
2023-02-11T03:57:02.565Z,109.20
2023-02-11T03:57:34.771Z,105.43
2023-02-11T03:58:07.281Z,103.07
2023-02-11T03:58:38.975Z,101.00
2023-02-11T03:59:10.665Z,98.30
2023-02-11T03:59:57.785Z,100.37
2023-02-11T04:00:36.636Z,95.87
2023-02-11T04:01:09.901Z,95.97
2023-02-11T04:01:41.636Z,97.57
2023-02-11T04:02:13.329Z,96.60
2023-02-11T04:02:45.083Z,94.87
2023-02-11T04:03:16.922Z,93.80
2023-02-11T04:03:48.610Z,95.67
2023-02-11T04:04:20.593Z,96.43
2023-02-11T04:04:52.256Z,96.90
2023-02-11T04:05:23.927Z,97.23
2023-02-11T04:05:55.550Z,93.90
2023-02-11T04:06:27.249Z,94.60
2023-02-11T04:06:58.898Z,95.87
2023-02-11T04:07:30.895Z,96.73
2023-02-11T04:08:03.459Z,95.03
2023-02-11T04:08:35.187Z,94.60
2023-02-11T04:09:07.230Z,96.27
2023-02-11T04:09:39.044Z,98.13
2023-02-11T04:10:12.212Z,95.20
2023-02-11T04:10:43.878Z,97.43
2023-02-11T04:11:15.578Z,96.17
2023-02-11T04:11:47.246Z,93.83
2023-02-11T04:12:19.377Z,94.33
2023-02-11T04:12:51.095Z,95.40
2023-02-11T04:13:23.236Z,96.30
2023-02-11T04:13:54.933Z,94.80
2023-02-11T04:14:26.642Z,94.00
2023-02-11T04:14:58.565Z,97.43
2023-02-11T04:15:30.300Z,95.57
2023-02-11T04:16:02.026Z,97.67
2023-02-11T04:16:33.790Z,98.60
2023-02-11T04:17:05.910Z,97.50
2023-02-11T04:17:37.943Z,97.50
2023-02-11T04:18:09.681Z,96.03
2023-02-11T04:18:41.326Z,95.40
2023-02-11T04:19:13.009Z,98.77
2023-02-11T04:19:44.758Z,101.33
2023-02-11T04:20:16.583Z,102.33
2023-02-11T04:20:50.379Z,99.77
2023-02-11T04:21:22.032Z,99.80
2023-02-11T04:21:53.722Z,100.27
2023-02-11T04:22:25.519Z,101.53
2023-02-11T04:22:57.269Z,101.10
2023-02-11T04:23:29.174Z,98.93
2023-02-11T04:24:00.809Z,99.43
2023-02-11T04:24:32.530Z,95.73
2023-02-11T04:25:05.942Z,94.47
2023-02-11T04:25:37.641Z,97.00
2023-02-11T04:26:09.321Z,95.73
2023-02-11T04:26:41.111Z,96.17
2023-02-11T04:27:12.902Z,93.30
2023-02-11T04:27:44.597Z,94.20
2023-02-11T04:28:16.300Z,96.07
2023-02-11T04:28:47.996Z,96.47
2023-02-11T04:29:19.700Z,95.80
2023-02-11T04:29:51.555Z,97.73
2023-02-11T04:30:23.360Z,99.67
2023-02-11T04:30:56.102Z,101.53
2023-02-11T04:31:27.895Z,99.33
2023-02-11T04:31:59.583Z,96.47
2023-02-11T04:32:31.318Z,96.77
2023-02-11T04:33:03.152Z,101.00
2023-02-11T04:33:34.786Z,103.33
2023-02-11T04:34:06.458Z,103.90
2023-02-11T04:34:38.336Z,107.47
2023-02-11T04:35:10.309Z,111.20
2023-02-11T04:35:41.957Z,109.47
2023-02-11T04:36:13.644Z,107.50
2023-02-11T04:36:45.453Z,105.40
2023-02-11T04:37:17.129Z,102.10
2023-02-11T04:37:48.823Z,104.60
2023-02-11T04:38:20.571Z,105.50
2023-02-11T04:38:52.220Z,103.10
2023-02-11T04:39:23.890Z,99.83
2023-02-11T04:39:55.553Z,98.97
2023-02-11T04:40:27.300Z,97.90
2023-02-11T04:41:00.596Z,100.43
2023-02-11T04:41:32.281Z,97.80
2023-02-11T04:42:04.154Z,97.03
2023-02-11T04:42:35.760Z,98.30
2023-02-11T04:43:07.503Z,95.17
2023-02-11T04:43:39.264Z,96.17
2023-02-11T04:44:11.108Z,94.47
2023-02-11T04:44:42.789Z,95.77
2023-02-11T04:45:14.477Z,96.83
2023-02-11T04:45:46.153Z,96.40
2023-02-11T04:46:17.818Z,94.27
2023-02-11T04:46:49.528Z,94.07
2023-02-11T04:47:21.379Z,95.97
2023-02-11T04:47:53.052Z,99.03
2023-02-11T04:48:25.186Z,99.00
2023-02-11T04:48:57.638Z,100.77
2023-02-11T04:49:29.322Z,100.53
2023-02-11T04:50:01.061Z,101.80
2023-02-11T04:50:32.977Z,100.60
2023-02-11T04:51:05.023Z,101.03
2023-02-11T04:51:36.658Z,101.67
2023-02-11T04:52:09.278Z,101.37
2023-02-11T04:52:40.948Z,98.00
2023-02-11T04:53:12.601Z,97.10
2023-02-11T04:53:44.325Z,96.70
2023-02-11T04:54:16.605Z,98.23
2023-02-11T04:54:48.308Z,98.23
2023-02-11T04:55:20.054Z,96.53
2023-02-11T04:55:52.392Z,98.70
2023-02-11T04:56:24.390Z,99.47
2023-02-11T04:56:56.091Z,95.27
2023-02-11T04:57:27.793Z,96.67
2023-02-11T04:57:59.451Z,96.10
2023-02-11T04:58:31.289Z,96.30
2023-02-11T04:59:03.672Z,96.63
2023-02-11T04:59:35.374Z,99.03
2023-02-11T05:00:08.280Z,98.57
2023-02-11T05:00:39.986Z,98.30
2023-02-11T05:01:14.578Z,95.20
2023-02-11T05:01:46.335Z,98.00
2023-02-11T05:02:17.982Z,97.63
2023-02-11T05:02:49.666Z,97.87
2023-02-11T05:03:21.528Z,95.90
2023-02-11T05:03:53.555Z,96.73
2023-02-11T05:04:25.491Z,97.03
2023-02-11T05:04:57.180Z,99.77
2023-02-11T05:05:28.843Z,98.43
2023-02-11T05:06:00.563Z,99.00
2023-02-11T05:06:32.238Z,98.70
2023-02-11T05:07:03.910Z,100.70
2023-02-11T05:07:35.694Z,103.73
2023-02-11T05:08:08.542Z,104.67
2023-02-11T05:08:40.310Z,105.50
2023-02-11T05:09:14.992Z,101.13
2023-02-11T05:09:46.731Z,100.10
2023-02-11T05:10:18.433Z,101.23
2023-02-11T05:10:50.067Z,103.33
2023-02-11T05:11:24.987Z,102.37
2023-02-11T05:11:56.678Z,101.93
2023-02-11T05:12:28.326Z,101.03
2023-02-11T05:13:00.235Z,99.17
2023-02-11T05:13:32.393Z,99.27
2023-02-11T05:14:04.085Z,102.07
2023-02-11T05:14:35.767Z,102.63
2023-02-11T05:15:07.746Z,104.97
2023-02-11T05:15:39.397Z,106.30
2023-02-11T05:16:11.203Z,106.70
2023-02-11T05:16:42.987Z,109.17
2023-02-11T05:17:14.703Z,109.63
2023-02-11T05:17:46.580Z,109.60
2023-02-11T05:18:18.207Z,110.00
2023-02-11T05:18:52.443Z,111.93
2023-02-11T05:19:24.295Z,111.77
2023-02-11T05:19:55.965Z,112.43
2023-02-11T05:20:27.634Z,112.87
2023-02-11T05:20:59.300Z,112.50
2023-02-11T05:21:31.100Z,111.77
2023-02-11T05:22:03.755Z,112.20
2023-02-11T05:22:35.501Z,112.33
2023-02-11T05:23:07.222Z,113.30
2023-02-11T05:23:40.204Z,111.47
2023-02-11T05:24:11.853Z,108.83
2023-02-11T05:24:43.479Z,107.77
2023-02-11T05:25:15.153Z,109.43
2023-02-11T05:25:46.827Z,104.90
2023-02-11T05:26:19.049Z,104.07
2023-02-11T05:26:50.708Z,105.60
2023-02-11T05:27:22.519Z,104.83
2023-02-11T05:27:54.193Z,103.83
2023-02-11T05:28:28.260Z,108.33
2023-02-11T05:29:00.056Z,106.60
2023-02-11T05:29:32.045Z,102.13
2023-02-11T05:30:05.633Z,100.30
2023-02-11T05:30:37.310Z,100.40
2023-02-11T05:31:09.521Z,100.90
2023-02-11T05:31:41.217Z,99.70
2023-02-11T05:32:12.919Z,100.73
2023-02-11T05:32:44.566Z,101.93
2023-02-11T05:33:16.260Z,101.13
2023-02-11T05:33:47.915Z,98.13
2023-02-11T05:34:19.719Z,95.93
2023-02-11T05:34:51.410Z,98.93
2023-02-11T05:35:23.217Z,99.53
2023-02-11T05:36:08.305Z,98.30
2023-02-11T05:36:39.954Z,99.80
2023-02-11T05:37:11.734Z,99.33
2023-02-11T05:37:43.447Z,97.20
2023-02-11T05:38:15.225Z,96.37
2023-02-11T05:38:46.892Z,95.60
2023-02-11T05:39:18.555Z,96.93
2023-02-11T05:39:50.232Z,99.73
2023-02-11T05:40:21.955Z,97.67
2023-02-11T05:40:54.177Z,96.87
2023-02-11T05:41:25.851Z,100.13
2023-02-11T05:41:57.553Z,101.97
2023-02-11T05:42:29.210Z,105.97
2023-02-11T05:43:00.897Z,107.33
2023-02-11T05:43:34.829Z,112.90
2023-02-11T05:44:06.553Z,113.43
2023-02-11T05:44:38.251Z,113.70
2023-02-11T05:45:10.043Z,112.00
2023-02-11T05:45:41.708Z,107.80
2023-02-11T05:46:13.373Z,107.30
2023-02-11T05:46:45.199Z,106.73
2023-02-11T05:47:16.868Z,101.67
2023-02-11T05:47:48.579Z,102.63
2023-02-11T05:48:20.212Z,99.03
2023-02-11T05:48:51.949Z,98.47
2023-02-11T05:49:23.763Z,97.20
2023-02-11T05:49:55.386Z,96.80
2023-02-11T05:50:27.072Z,97.87
2023-02-11T05:50:59.342Z,97.97
2023-02-11T05:51:30.972Z,100.13
2023-02-11T05:52:02.688Z,99.57
2023-02-11T05:52:34.390Z,97.23
2023-02-11T05:53:06.836Z,97.97
2023-02-11T05:53:38.689Z,98.43
2023-02-11T05:54:10.661Z,98.90
2023-02-11T05:54:42.420Z,98.70
2023-02-11T05:55:14.210Z,96.53
2023-02-11T05:55:46.340Z,99.03
2023-02-11T05:56:18.148Z,97.57
2023-02-11T05:56:49.800Z,95.00
2023-02-11T05:57:21.473Z,95.50
2023-02-11T05:57:53.114Z,96.77
2023-02-11T05:58:24.783Z,98.80
2023-02-11T05:58:58.307Z,99.07
2023-02-11T05:59:29.939Z,96.47
2023-02-11T06:00:01.605Z,95.80
2023-02-11T06:00:33.591Z,98.33
2023-02-11T06:01:05.349Z,97.97
2023-02-11T06:01:37.046Z,99.50
2023-02-11T06:02:09.733Z,98.23
2023-02-11T06:02:44.001Z,97.13
2023-02-11T06:03:15.833Z,99.57
2023-02-11T06:03:50.045Z,105.70
2023-02-11T06:04:21.950Z,111.93
2023-02-11T06:04:53.643Z,112.00
2023-02-11T06:05:25.415Z,110.77
2023-02-11T06:05:57.073Z,112.10
2023-02-11T06:06:28.728Z,112.93
2023-02-11T06:07:00.519Z,111.83
2023-02-11T06:07:32.292Z,110.67
2023-02-11T06:08:04.127Z,109.20
2023-02-11T06:08:38.135Z,107.83
2023-02-11T06:09:11.817Z,108.17
2023-02-11T06:09:43.563Z,108.53
2023-02-11T06:10:15.349Z,106.87
2023-02-11T06:10:47.183Z,102.67
2023-02-11T06:11:18.915Z,103.97
2023-02-11T06:11:50.603Z,102.93
2023-02-11T06:12:22.241Z,99.77
2023-02-11T06:12:53.921Z,103.80
2023-02-11T06:13:25.633Z,98.73
2023-02-11T06:13:57.269Z,99.90
2023-02-11T06:14:28.922Z,102.40
2023-02-11T06:15:00.653Z,99.90
2023-02-11T06:15:32.285Z,101.13
2023-02-11T06:16:04.150Z,101.00
2023-02-11T06:16:35.855Z,98.40
2023-02-11T06:17:07.658Z,99.53
2023-02-11T06:17:39.458Z,99.50
2023-02-11T06:18:11.220Z,101.57
2023-02-11T06:18:42.927Z,102.43
2023-02-11T06:19:14.559Z,103.93
2023-02-11T06:19:46.241Z,103.77
2023-02-11T06:20:18.004Z,100.80
2023-02-11T06:20:49.653Z,105.53
2023-02-11T06:21:21.310Z,111.43
2023-02-11T06:21:53.002Z,115.77
2023-02-11T06:22:24.706Z,117.57
2023-02-11T06:22:56.383Z,118.50
2023-02-11T06:23:30.235Z,119.00
2023-02-11T06:24:02.149Z,121.17
2023-02-11T06:24:58.507Z,126.93
2023-02-11T06:25:25.388Z,130.43
2023-02-11T06:26:02.270Z,125.23
2023-02-11T06:26:34.016Z,128.47
2023-02-11T06:27:06.047Z,126.73
2023-02-11T06:27:38.156Z,121.57
2023-02-11T06:28:10.775Z,119.97
2023-02-11T06:28:42.493Z,117.30
2023-02-11T06:29:14.274Z,114.27
2023-02-11T06:29:46.957Z,114.13
2023-02-11T06:30:18.643Z,113.40
2023-02-11T06:30:50.429Z,114.03
2023-02-11T06:31:22.240Z,112.00
2023-02-11T06:31:54.041Z,115.60
2023-02-11T06:32:42.648Z,113.97
2023-02-11T06:33:15.814Z,112.67
2023-02-11T06:33:47.483Z,112.60
2023-02-11T06:34:19.204Z,110.77
2023-02-11T06:34:50.886Z,109.63
2023-02-11T06:35:22.596Z,106.03
2023-02-11T06:35:54.270Z,106.87
2023-02-11T06:36:26.015Z,109.37
2023-02-11T06:36:57.674Z,109.40
2023-02-11T06:37:29.332Z,110.50
2023-02-11T06:38:01.718Z,107.57
2023-02-11T06:38:33.395Z,104.47
2023-02-11T06:39:05.499Z,108.00
2023-02-11T06:39:37.221Z,110.93
2023-02-11T06:40:09.749Z,110.87
2023-02-11T06:40:41.939Z,107.93
2023-02-11T06:41:15.777Z,109.97
2023-02-11T06:41:47.451Z,107.63
2023-02-11T06:42:19.136Z,107.53
2023-02-11T06:42:50.766Z,103.77
2023-02-11T06:43:22.652Z,104.47
2023-02-11T06:43:54.641Z,110.37
2023-02-11T06:44:26.322Z,112.57
2023-02-11T06:44:58.056Z,114.07
2023-02-11T06:45:29.724Z,112.33
2023-02-11T06:46:01.372Z,114.13
2023-02-11T06:46:33.264Z,111.97
2023-02-11T06:47:05.173Z,109.47
2023-02-11T06:47:37.722Z,112.67
2023-02-11T06:48:09.458Z,114.93
2023-02-11T06:48:43.779Z,113.07
2023-02-11T06:49:16.722Z,113.37
2023-02-11T06:49:48.397Z,111.80
2023-02-11T06:50:20.232Z,112.77
2023-02-11T06:50:51.906Z,117.60
2023-02-11T06:51:23.640Z,117.33
2023-02-11T06:51:55.343Z,117.27
2023-02-11T06:52:27.102Z,117.60
2023-02-11T06:53:02.014Z,118.80
2023-02-11T06:53:38.639Z,117.90
2023-02-11T06:54:12.197Z,116.97
2023-02-11T06:54:43.850Z,117.60
2023-02-11T06:55:15.554Z,117.13
2023-02-11T06:55:47.316Z,118.07
2023-02-11T06:56:22.221Z,124.70
2023-02-11T06:56:53.922Z,128.00
2023-02-11T06:57:25.673Z,129.77
2023-02-11T06:57:57.388Z,133.17
2023-02-11T06:58:29.031Z,130.33
2023-02-11T06:59:01.152Z,131.13
2023-02-11T06:59:32.939Z,125.70
2023-02-11T07:00:05.881Z,127.53
2023-02-11T07:00:37.915Z,131.93
2023-02-11T07:01:14.058Z,133.67
2023-02-11T07:01:45.729Z,139.73
2023-02-11T07:02:19.649Z,137.83
2023-02-11T07:02:52.574Z,135.13
2023-02-11T07:03:24.328Z,132.30
2023-02-11T07:03:56.016Z,128.10
2023-02-11T07:04:27.740Z,126.53
2023-02-11T07:04:59.386Z,123.40
2023-02-11T07:05:31.076Z,119.97
2023-02-11T07:06:05.511Z,119.80
2023-02-11T07:06:38.023Z,123.53
2023-02-11T07:07:09.705Z,123.77
2023-02-11T07:07:41.378Z,124.63
2023-02-11T07:08:13.034Z,124.73
2023-02-11T07:08:45.998Z,122.33
2023-02-11T07:09:17.640Z,123.00
2023-02-11T07:09:49.301Z,121.73
2023-02-11T07:10:21.108Z,122.50
2023-02-11T07:10:52.789Z,121.10
2023-02-11T07:11:27.298Z,121.53
2023-02-11T07:11:59.007Z,124.33
2023-02-11T07:12:31.205Z,127.90
2023-02-11T07:13:02.825Z,138.17
2023-02-11T07:13:34.496Z,149.20
2023-02-11T07:14:08.593Z,161.00
2023-02-11T07:14:40.560Z,177.57
2023-02-11T07:15:12.318Z,194.13
2023-02-11T07:15:44.074Z,203.47
2023-02-11T07:16:18.529Z,216.87
2023-02-11T07:16:50.271Z,198.30
2023-02-11T07:17:21.980Z,180.27
2023-02-11T07:17:53.665Z,174.43
2023-02-11T07:18:25.320Z,171.67
2023-02-11T07:18:57.027Z,160.77
2023-02-11T07:19:28.720Z,155.77
2023-02-11T07:20:00.398Z,153.30
2023-02-11T07:20:32.033Z,152.73
2023-02-11T07:21:07.978Z,150.30
2023-02-11T07:21:40.167Z,147.10
2023-02-11T07:22:11.875Z,142.67